Time;durP1;ratioP1;P1;durP2;ratioP2;P2;SDS_P1;SDS_P2;PMS_P1;PMS_P2;Temp;Humidity;BMP_temperature;BMP_pressure;BME280_temperature;BME280_humidity;BME280_pressure;Samples;Min_cycle;Max_cycle;Signal;HPM_P1;HPM_P2
2023/10/18 00:03:42;;;;;;;12.70;8.77;;;;;;;;;;10360900;28;20026;-77
2023/10/18 00:08:47;;;;;;;11.98;7.97;;;;;;;;;;10376715;28;20399;-76
2023/10/18 00:13:51;;;;;;;13.07;7.10;;;;;;;;;;10343973;28;20092;-79
2023/10/18 00:18:52;;;;;;;15.68;8.40;;;;;;;;;;10360052;28;20022;-76
2023/10/18 00:23:52;;;;;;;11.60;7.78;;;;;;;;;;10360778;28;20121;-75
2023/10/18 00:28:53;;;;;;;14.48;8.55;;;;;;;;;;10361951;28;20034;-76
2023/10/18 00:33:53;;;;;;;13.30;8.75;;;;;;;;;;10369380;28;20150;-77
2023/10/18 00:38:54;;;;;;;15.15;9.30;;;;;;;;;;10367499;28;20107;-79
2023/10/18 00:43:55;;;;;;;13.70;9.02;;;;;;;;;;10352027;28;20041;-79
2023/10/18 00:48:55;;;;;;;16.05;9.90;;;;;;;;;;10368673;28;20026;-81
2023/10/18 00:53:55;;;;;;;20.25;11.77;;;;;;;;;;10366906;28;20084;-78
2023/10/18 00:58:59;;;;;;;20.88;12.25;;;;;;;;;;10349738;28;20026;-75
2023/10/18 01:04:02;;;;;;;18.02;11.57;;;;;;;;;;10368050;28;20096;-80
2023/10/18 01:09:03;;;;;;;22.27;13.25;;;;;;;;;;10366300;28;20045;-73
2023/10/18 01:14:05;;;;;;;19.25;11.57;;;;;;;;;;10366012;28;20018;-81
2023/10/18 01:19:08;;;;;;;24.05;11.68;;;;;;;;;;10367453;28;20105;-79
2023/10/18 01:24:14;;;;;;;15.32;10.15;;;;;;;;;;10366394;28;20014;-75
2023/10/18 01:29:15;;;;;;;20.48;11.60;;;;;;;;;;10366021;28;20021;-81
2023/10/18 01:34:16;;;;;;;22.20;12.88;;;;;;;;;;10366118;28;20060;-74
2023/10/18 01:39:20;;;;;;;19.65;11.00;;;;;;;;;;10364984;28;20037;-75
2023/10/18 01:44:33;;;;;;;29.88;13.30;;;;;;;;;;10366615;28;20092;-77
2023/10/18 01:49:43;;;;;;;23.83;12.95;;;;;;;;;;10365912;28;20034;-78
2023/10/18 01:54:44;;;;;;;20.95;11.98;;;;;;;;;;10368038;28;20037;-77
2023/10/18 01:59:46;;;;;;;22.63;12.10;;;;;;;;;;10366409;28;20025;-77
2023/10/18 02:04:53;;;;;;;27.42;13.25;;;;;;;;;;10367395;28;20032;-78
2023/10/18 02:09:57;;;;;;;22.85;14.10;;;;;;;;;;10365654;28;20033;-78
2023/10/18 02:15:00;;;;;;;24.20;13.00;;;;;;;;;;10364298;28;20524;-80
2023/10/18 02:20:01;;;;;;;23.83;13.95;;;;;;;;;;10364393;28;20097;-75
2023/10/18 02:25:02;;;;;;;27.13;11.95;;;;;;;;;;10365072;28;20129;-77
2023/10/18 02:30:03;;;;;;;21.23;11.57;;;;;;;;;;10364190;28;20030;-78
2023/10/18 02:35:04;;;;;;;22.58;12.32;;;;;;;;;;10364088;28;20487;-74
2023/10/18 02:40:09;;;;;;;23.10;11.80;;;;;;;;;;10363426;28;20091;-79
2023/10/18 02:45:17;;;;;;;21.80;11.52;;;;;;;;;;10362671;28;20064;-80
2023/10/18 02:50:18;;;;;;;26.67;13.33;;;;;;;;;;10360367;28;20053;-77
2023/10/18 02:55:19;;;;;;;20.80;12.43;;;;;;;;;;10357225;28;20033;-78
2023/10/18 03:00:20;;;;;;;22.45;12.25;;;;;;;;;;10352885;28;20456;-80
2023/10/18 03:05:21;;;;;;;22.10;11.73;;;;;;;;;;10355594;28;20544;-81
2023/10/18 03:10:27;;;;;;;26.20;13.50;;;;;;;;;;10358950;28;20111;-79
2023/10/18 03:15:28;;;;;;;25.48;11.65;;;;;;;;;;10351818;28;20041;-79
2023/10/18 03:20:28;;;;;;;24.20;14.02;;;;;;;;;;10358059;28;20136;-77
2023/10/18 03:25:31;;;;;;;23.17;12.97;;;;;;;;;;10358884;28;20029;-81
2023/10/18 03:30:44;;;;;;;15.48;10.73;;;;;;;;;;10362246;28;20055;-79
2023/10/18 03:35:46;;;;;;;22.25;12.73;;;;;;;;;;10361596;28;20064;-80
2023/10/18 03:41:07;;;;;;;18.95;11.73;;;;;;;;;;10360915;28;20678;-83
2023/10/18 03:46:29;;;;;;;21.08;11.65;;;;;;;;;;10361115;28;20041;-81
2023/10/18 03:51:30;;;;;;;19.27;11.23;;;;;;;;;;10363311;28;20116;-75
2023/10/18 03:56:36;;;;;;;19.15;11.65;;;;;;;;;;10363163;28;20028;-80
2023/10/18 04:01:44;;;;;;;16.77;10.10;;;;;;;;;;10373687;28;20388;-77
2023/10/18 04:06:44;;;;;;;18.45;9.73;;;;;;;;;;10369876;28;20380;-78
2023/10/18 04:11:47;;;;;;;14.57;9.35;;;;;;;;;;10362264;28;20025;-82
2023/10/18 04:16:54;;;;;;;17.60;9.20;;;;;;;;;;10462950;23;20398;-73
2023/10/18 04:21:54;;;;;;;14.88;9.68;;;;;;;;;;10415351;28;20043;-73
2023/10/18 04:26:56;;;;;;;15.88;9.10;;;;;;;;;;10415590;28;20223;-75
2023/10/18 04:31:56;;;;;;;13.60;8.55;;;;;;;;;;10411686;28;20299;-74
2023/10/18 04:36:58;;;;;;;13.07;8.93;;;;;;;;;;10411874;28;20112;-75
2023/10/18 04:42:00;;;;;;;15.57;8.68;;;;;;;;;;10404910;28;20030;-73
2023/10/18 04:47:14;;;;;;;19.40;11.27;;;;;;;;;;10401254;28;20032;-74
2023/10/18 04:52:28;;;;;;;16.63;10.48;;;;;;;;;;10414168;28;20022;-74
2023/10/18 04:57:28;;;;;;;16.13;9.40;;;;;;;;;;10412289;28;20079;-74
2023/10/18 05:02:29;;;;;;;18.17;9.17;;;;;;;;;;10414094;28;20053;-74
2023/10/18 05:07:41;;;;;;;14.65;8.77;;;;;;;;;;10411190;28;20021;-74
2023/10/18 05:13:19;;;;;;;12.80;8.30;;;;;;;;;;10411031;28;20063;-75
2023/10/18 05:18:17;;;;;;;14.50;9.15;;;;;;;;;;10420513;28;20049;-75
2023/10/18 05:23:22;;;;;;;10.85;8.52;;;;;;;;;;10421744;28;20021;-75
2023/10/18 05:28:28;;;;;;;13.90;8.82;;;;;;;;;;10421299;28;20037;-75
2023/10/18 05:43:46;;;;;;;14.52;9.50;;;;;;;;;;10420696;28;20044;-76
2023/10/18 05:48:46;;;;;;;12.70;8.90;;;;;;;;;;10420777;28;20017;-75
2023/10/18 05:53:46;;;;;;;15.95;8.50;;;;;;;;;;10420920;28;20112;-74
2023/10/18 05:58:56;;;;;;;12.18;7.28;;;;;;;;;;10420093;28;20029;-75
2023/10/18 06:03:57;;;;;;;10.50;7.05;;;;;;;;;;10426171;28;20117;-74
2023/10/18 06:08:58;;;;;;;11.05;7.05;;;;;;;;;;10423154;28;20029;-74
2023/10/18 06:13:58;;;;;;;12.38;7.00;;;;;;;;;;10415190;28;20212;-73
2023/10/18 06:19:00;;;;;;;9.48;6.68;;;;;;;;;;10384278;28;20065;-75
2023/10/18 06:24:08;;;;;;;11.70;7.95;;;;;;;;;;10419867;28;20230;-74
2023/10/18 06:29:08;;;;;;;10.07;6.50;;;;;;;;;;10417397;28;20080;-74
2023/10/18 06:34:30;;;;;;;10.20;7.22;;;;;;;;;;10419632;28;20064;-74
2023/10/18 06:39:35;;;;;;;10.35;7.88;;;;;;;;;;10419321;28;20013;-75
2023/10/18 06:44:36;;;;;;;13.15;6.88;;;;;;;;;;10418909;28;20056;-75
2023/10/18 06:49:37;;;;;;;12.63;6.57;;;;;;;;;;10418002;28;20259;-75
2023/10/18 06:54:38;;;;;;;11.32;7.30;;;;;;;;;;10418890;28;20024;-74
2023/10/18 06:59:39;;;;;;;9.77;7.28;;;;;;;;;;10419057;28;20022;-74
2023/10/18 07:04:46;;;;;;;9.70;7.30;;;;;;;;;;10418443;28;20234;-75
2023/10/18 07:09:49;;;;;;;13.35;7.00;;;;;;;;;;10417953;28;20109;-74
2023/10/18 07:14:50;;;;;;;16.63;6.65;;;;;;;;;;10417522;28;20050;-75
2023/10/18 07:20:00;;;;;;;12.70;7.18;;;;;;;;;;10417531;28;20323;-74
2023/10/18 07:25:00;;;;;;;11.23;6.75;;;;;;;;;;10417142;28;20092;-74
2023/10/18 07:30:01;;;;;;;11.02;6.20;;;;;;;;;;10417302;28;20334;-74
2023/10/18 07:35:01;;;;;;;16.98;6.85;;;;;;;;;;10416792;28;20024;-74
2023/10/18 07:40:08;;;;;;;20.70;6.97;;;;;;;;;;10416489;28;20021;-74
2023/10/18 07:45:08;;;;;;;9.05;6.13;;;;;;;;;;10416459;28;20299;-75
2023/10/18 07:55:28;;;;;;;12.00;6.72;;;;;;;;;;10416441;28;20283;-75
2023/10/18 08:00:31;;;;;;;14.95;6.35;;;;;;;;;;10415047;28;20356;-74
2023/10/18 08:05:43;;;;;;;10.43;5.65;;;;;;;;;;10414803;28;20029;-74
2023/10/18 08:10:43;;;;;;;15.93;6.03;;;;;;;;;;10394573;28;20207;-75
2023/10/18 08:15:50;;;;;;;11.40;4.57;;;;;;;;;;10397725;28;20036;-74
2023/10/18 08:25:51;;;;;;;8.02;5.25;;;;;;;;;;10415727;28;20068;-75
2023/10/18 08:35:58;;;;;;;11.68;4.97;;;;;;;;;;10395766;28;20371;-74
2023/10/18 08:41:16;;;;;;;10.20;5.60;;;;;;;;;;10413737;28;20356;-74
2023/10/18 08:46:17;;;;;;;;;;;;;;;;;;10415853;28;20223;-75
2023/10/18 08:51:18;;;;;;;9.52;5.82;;;;;;;;;;10419516;28;19916;-74
2023/10/18 08:56:25;;;;;;;6.35;4.82;;;;;;;;;;10423390;28;20032;-74
2023/10/18 09:01:25;;;;;;;10.30;5.82;;;;;;;;;;10427185;28;20533;-74
2023/10/18 09:06:32;;;;;;;7.20;5.70;;;;;;;;;;10422992;28;20089;-75
2023/10/18 09:11:34;;;;;;;11.60;6.03;;;;;;;;;;10422583;28;20024;-74
2023/10/18 09:16:36;;;;;;;11.85;5.55;;;;;;;;;;10422377;28;20294;-74
2023/10/18 09:21:36;;;;;;;10.13;6.70;;;;;;;;;;10422348;28;20017;-74
2023/10/18 09:26:43;;;;;;;10.15;5.53;;;;;;;;;;10421511;28;20248;-75
2023/10/18 09:31:50;;;;;;;10.23;5.38;;;;;;;;;;10421749;28;20029;-74
2023/10/18 09:36:55;;;;;;;11.73;6.37;;;;;;;;;;10420318;28;20067;-74
2023/10/18 09:41:55;;;;;;;10.25;4.95;;;;;;;;;;10421174;28;20216;-74
2023/10/18 09:46:55;;;;;;;9.27;5.25;;;;;;;;;;10421250;28;20117;-75
2023/10/18 09:51:56;;;;;;;9.52;5.82;;;;;;;;;;10420971;28;20024;-75
2023/10/18 09:56:57;;;;;;;8.20;5.22;;;;;;;;;;10419361;28;20017;-74
2023/10/18 10:12:27;;;;;;;9.63;5.97;;;;;;;;;;10420164;28;20009;-75
2023/10/18 10:17:29;;;;;;;7.40;5.28;;;;;;;;;;10419630;28;20222;-73
2023/10/18 10:22:30;;;;;;;6.68;4.15;;;;;;;;;;10419880;28;20022;-75
2023/10/18 10:32:31;;;;;;;9.40;5.93;;;;;;;;;;10419229;28;20318;-75
2023/10/18 10:37:33;;;;;;;8.48;5.50;;;;;;;;;;10419030;28;20238;-74
2023/10/18 10:42:49;;;;;;;7.25;4.93;;;;;;;;;;10419869;28;20029;-75
2023/10/18 10:47:50;;;;;;;12.13;5.68;;;;;;;;;;10416815;28;20274;-75
2023/10/18 10:52:50;;;;;;;9.20;5.50;;;;;;;;;;10378610;28;20021;-75
2023/10/18 10:57:52;;;;;;;7.57;5.65;;;;;;;;;;10418548;28;20025;-74
2023/10/18 11:02:54;;;;;;;10.15;5.80;;;;;;;;;;10418304;28;20339;-74
2023/10/18 11:07:55;;;;;;;8.02;5.20;;;;;;;;;;10418151;28;20021;-74
2023/10/18 11:12:56;;;;;;;16.48;5.63;;;;;;;;;;10421212;28;20088;-74
2023/10/18 11:18:09;;;;;;;10.32;5.53;;;;;;;;;;10417713;28;20120;-74
2023/10/18 11:23:10;;;;;;;8.40;5.32;;;;;;;;;;10417309;28;20345;-74
2023/10/18 11:28:28;;;;;;;11.93;6.05;;;;;;;;;;10417224;28;20025;-74
2023/10/18 11:33:59;;;;;;;10.23;5.30;;;;;;;;;;10390795;28;20227;-75
2023/10/18 11:44:28;;;;;;;7.45;5.40;;;;;;;;;;10416363;28;20028;-74
2023/10/18 11:49:35;;;;;;;7.28;5.38;;;;;;;;;;10416035;28;20029;-75
2023/10/18 11:54:36;;;;;;;10.70;6.13;;;;;;;;;;10416705;28;20022;-74
2023/10/18 11:59:49;;;;;;;9.90;6.50;;;;;;;;;;10414614;28;20017;-74
2023/10/18 12:04:50;;;;;;;11.02;6.65;;;;;;;;;;10419866;28;20294;-73
2023/10/18 12:09:54;;;;;;;13.20;8.33;;;;;;;;;;10415768;28;20036;-75
2023/10/18 12:14:54;;;;;;;8.05;5.72;;;;;;;;;;10415852;28;20018;-73
2023/10/18 12:19:55;;;;;;;11.95;8.02;;;;;;;;;;10414996;28;20037;-75
2023/10/18 12:24:55;;;;;;;11.05;7.22;;;;;;;;;;10412913;28;20080;-75
2023/10/18 12:29:59;;;;;;;13.48;7.60;;;;;;;;;;10415201;28;20330;-75
2023/10/18 12:35:06;;;;;;;13.43;8.98;;;;;;;;;;10415129;28;20060;-75
2023/10/18 12:40:28;;;;;;;9.73;7.70;;;;;;;;;;10413884;28;20040;-73
2023/10/18 12:45:28;;;;;;;12.25;7.57;;;;;;;;;;10414344;28;20108;-73
2023/10/18 12:50:30;;;;;;;11.60;7.67;;;;;;;;;;10403172;28;20016;-73
2023/10/18 12:55:36;;;;;;;10.50;7.05;;;;;;;;;;10413947;28;20080;-75
2023/10/18 13:00:42;;;;;;;10.52;7.07;;;;;;;;;;10414211;28;20045;-75
2023/10/18 13:05:45;;;;;;;13.55;7.85;;;;;;;;;;10415021;28;20363;-74
2023/10/18 13:10:59;;;;;;;16.50;8.40;;;;;;;;;;10413309;28;20022;-75
2023/10/18 13:15:59;;;;;;;11.95;7.82;;;;;;;;;;10413966;28;20214;-74
2023/10/18 13:21:07;;;;;;;11.48;7.80;;;;;;;;;;10414142;28;20021;-74
2023/10/18 13:26:09;;;;;;;11.50;8.47;;;;;;;;;;10414101;28;20025;-73
2023/10/18 13:31:18;;;;;;;10.82;6.88;;;;;;;;;;10411298;28;20033;-76
2023/10/18 13:36:21;;;;;;;12.43;7.22;;;;;;;;;;10414662;28;20319;-76
2023/10/18 13:41:22;;;;;;;12.50;8.18;;;;;;;;;;10420504;28;20021;-75
2023/10/18 13:46:23;;;;;;;11.33;8.03;;;;;;;;;;10419477;28;20215;-75
2023/10/18 13:51:23;;;;;;;14.30;8.82;;;;;;;;;;10417270;28;20029;-75
2023/10/18 13:56:24;;;;;;;17.50;9.75;;;;;;;;;;10420350;28;20231;-75
2023/10/18 14:01:25;;;;;;;28.58;18.58;;;;;;;;;;10418893;28;20088;-76
2023/10/18 14:06:25;;;;;;;14.73;9.68;;;;;;;;;;10418829;28;20287;-77
2023/10/18 14:11:27;;;;;;;17.13;10.03;;;;;;;;;;10419694;28;20014;-77
2023/10/18 14:16:27;;;;;;;14.82;10.40;;;;;;;;;;10418453;28;20296;-78
2023/10/18 14:21:29;;;;;;;14.77;9.38;;;;;;;;;;10418212;28;20207;-78
2023/10/18 14:26:30;;;;;;;15.73;9.48;;;;;;;;;;10418390;28;20021;-77
2023/10/18 14:31:32;;;;;;;16.63;11.57;;;;;;;;;;10421685;28;20017;-76
2023/10/18 14:36:32;;;;;;;18.52;10.77;;;;;;;;;;10417706;28;20361;-76
2023/10/18 14:41:34;;;;;;;15.47;10.27;;;;;;;;;;10422518;28;20017;-77
2023/10/18 14:46:37;;;;;;;16.50;10.45;;;;;;;;;;10416420;28;20067;-77
2023/10/18 14:51:43;;;;;;;15.70;11.50;;;;;;;;;;10417253;28;20024;-76
2023/10/18 14:56:44;;;;;;;14.45;10.85;;;;;;;;;;10417022;28;20032;-78
2023/10/18 15:01:44;;;;;;;14.52;9.63;;;;;;;;;;10417055;28;20084;-76
2023/10/18 15:06:45;;;;;;;15.60;10.63;;;;;;;;;;10416456;28;20353;-77
2023/10/18 15:11:47;;;;;;;14.50;10.85;;;;;;;;;;10416339;28;20059;-77
2023/10/18 15:16:48;;;;;;;16.63;11.15;;;;;;;;;;10419527;28;20033;-78
2023/10/18 15:21:48;;;;;;;13.32;9.13;;;;;;;;;;10416099;28;20315;-78
2023/10/18 15:26:49;;;;;;;16.35;10.15;;;;;;;;;;10415724;28;20025;-78
2023/10/18 15:31:50;;;;;;;21.13;11.38;;;;;;;;;;10415821;28;20041;-78
2023/10/18 15:36:50;;;;;;;18.10;10.88;;;;;;;;;;10415234;28;20025;-77
2023/10/18 15:41:51;;;;;;;14.77;9.63;;;;;;;;;;10416783;28;20080;-76
2023/10/18 15:46:56;;;;;;;13.20;9.80;;;;;;;;;;10409309;28;20017;-76
2023/10/18 15:51:57;;;;;;;13.32;9.32;;;;;;;;;;10417288;28;20200;-78
2023/10/18 15:56:57;;;;;;;15.88;9.48;;;;;;;;;;10416185;28;20017;-77
2023/10/18 16:01:57;;;;;;;16.17;11.53;;;;;;;;;;10415790;28;20117;-77
2023/10/18 16:06:58;;;;;;;17.23;9.57;;;;;;;;;;10415728;28;20487;-77
2023/10/18 16:11:58;;;;;;;14.35;10.35;;;;;;;;;;10416001;28;20021;-78
2023/10/18 16:17:00;;;;;;;12.90;8.87;;;;;;;;;;10415314;28;20045;-78
2023/10/18 16:22:00;;;;;;;13.52;9.68;;;;;;;;;;10422202;28;20230;-77
2023/10/18 16:27:01;;;;;;;17.58;10.85;;;;;;;;;;10415276;28;20048;-72
2023/10/18 16:32:02;;;;;;;13.25;8.70;;;;;;;;;;10413907;28;20188;-75
2023/10/18 16:37:02;;;;;;;12.45;8.57;;;;;;;;;;10415048;28;20017;-75
2023/10/18 16:42:04;;;;;;;12.18;7.60;;;;;;;;;;10414824;28;20029;-76
2023/10/18 16:47:04;;;;;;;6.80;5.25;;;;;;;;;;10414715;28;20254;-75
2023/10/18 16:52:04;;;;;;;15.13;8.83;;;;;;;;;;10414826;28;20017;-73
2023/10/18 16:57:05;;;;;;;17.52;10.75;;;;;;;;;;10414859;28;20173;-75
2023/10/18 17:02:05;;;;;;;16.17;9.43;;;;;;;;;;10413530;28;20356;-76
2023/10/18 17:07:05;;;;;;;14.77;9.27;;;;;;;;;;10416065;28;20031;-75
2023/10/18 17:12:06;;;;;;;14.77;9.77;;;;;;;;;;10415172;28;20267;-79
2023/10/18 17:17:07;;;;;;;14.53;9.80;;;;;;;;;;10421755;28;20258;-75
2023/10/18 17:22:08;;;;;;;17.48;10.50;;;;;;;;;;10421730;28;20345;-74
2023/10/18 17:27:09;;;;;;;16.02;9.95;;;;;;;;;;10422014;28;20029;-71
2023/10/18 17:32:10;;;;;;;17.67;11.55;;;;;;;;;;10430494;28;20017;-73
2023/10/18 17:37:10;;;;;;;16.83;10.95;;;;;;;;;;10421352;28;20227;-71
2023/10/18 17:42:10;;;;;;;17.33;10.63;;;;;;;;;;10421298;28;20111;-75
2023/10/18 17:47:12;;;;;;;18.63;10.97;;;;;;;;;;10415209;28;20060;-69
2023/10/18 17:52:14;;;;;;;19.20;11.63;;;;;;;;;;10415802;28;20014;-69
2023/10/18 17:57:18;;;;;;;15.77;10.05;;;;;;;;;;10413484;28;20061;-69
2023/10/18 18:02:19;;;;;;;16.67;10.57;;;;;;;;;;10413680;28;20017;-69
2023/10/18 18:07:21;;;;;;;16.02;9.95;;;;;;;;;;10413703;28;20085;-69
2023/10/18 18:12:21;;;;;;;20.05;10.77;;;;;;;;;;10413560;28;20092;-69
2023/10/18 18:17:22;;;;;;;15.17;9.37;;;;;;;;;;10413254;28;20342;-68
2023/10/18 18:22:22;;;;;;;16.20;10.18;;;;;;;;;;10412871;28;20044;-68
2023/10/18 18:27:23;;;;;;;18.00;10.63;;;;;;;;;;10412168;28;20033;-69
2023/10/18 18:32:24;;;;;;;15.52;10.38;;;;;;;;;;10413346;28;20013;-68
2023/10/18 18:37:24;;;;;;;17.15;10.63;;;;;;;;;;10413524;28;20100;-69
2023/10/18 18:42:25;;;;;;;15.60;10.77;;;;;;;;;;10413698;28;20288;-68
2023/10/18 18:47:25;;;;;;;14.60;10.05;;;;;;;;;;10411171;28;20017;-68
2023/10/18 18:52:25;;;;;;;21.00;11.67;;;;;;;;;;10413722;28;20317;-68
2023/10/18 18:57:26;;;;;;;20.10;11.40;;;;;;;;;;10412588;28;20025;-68
2023/10/18 19:02:26;;;;;;;20.55;12.30;;;;;;;;;;10411815;28;20033;-68
2023/10/18 19:07:26;;;;;;;18.45;11.80;;;;;;;;;;10409014;28;20021;-68
2023/10/18 19:12:26;;;;;;;23.77;14.20;;;;;;;;;;10410129;28;20018;-68
2023/10/18 19:17:27;;;;;;;23.88;13.40;;;;;;;;;;10409587;28;20041;-68
2023/10/18 19:22:27;;;;;;;26.57;14.63;;;;;;;;;;10411725;28;20354;-68
2023/10/18 19:27:27;;;;;;;26.95;15.95;;;;;;;;;;10410803;28;20026;-69
2023/10/18 19:32:28;;;;;;;27.23;15.43;;;;;;;;;;10410558;28;20025;-68
2023/10/18 19:37:28;;;;;;;38.72;19.67;;;;;;;;;;10407681;28;20067;-70
2023/10/18 19:42:28;;;;;;;34.97;18.60;;;;;;;;;;10411370;28;20025;-72
2023/10/18 19:47:28;;;;;;;31.50;17.95;;;;;;;;;;10409831;28;20037;-73
2023/10/18 19:52:29;;;;;;;35.60;17.98;;;;;;;;;;10410569;28;20025;-71
2023/10/18 19:57:31;;;;;;;32.30;18.13;;;;;;;;;;10409693;28;20029;-71
2023/10/18 20:02:31;;;;;;;35.60;17.83;;;;;;;;;;10409159;28;20229;-72
2023/10/18 20:07:31;;;;;;;36.22;18.60;;;;;;;;;;10408911;28;20021;-72
2023/10/18 20:12:31;;;;;;;31.40;18.98;;;;;;;;;;10410512;28;20237;-71
2023/10/18 20:17:32;;;;;;;32.45;18.25;;;;;;;;;;10409192;28;20052;-71
2023/10/18 20:22:32;;;;;;;31.10;19.33;;;;;;;;;;10409042;28;20090;-71
2023/10/18 20:27:32;;;;;;;41.47;21.67;;;;;;;;;;10410464;28;20036;-71
2023/10/18 20:32:36;;;;;;;39.03;20.48;;;;;;;;;;10409297;28;20017;-72
2023/10/18 20:37:36;;;;;;;43.90;22.15;;;;;;;;;;10408826;28;20301;-71
2023/10/18 20:42:37;;;;;;;47.33;21.13;;;;;;;;;;10407619;28;20036;-67
2023/10/18 20:47:38;;;;;;;43.95;19.60;;;;;;;;;;10419368;28;20334;-68
2023/10/18 20:52:41;;;;;;;41.25;22.10;;;;;;;;;;10422848;28;20024;-68
2023/10/18 20:57:42;;;;;;;36.95;19.05;;;;;;;;;;10422717;28;20020;-68
2023/10/18 21:02:45;;;;;;;40.08;20.45;;;;;;;;;;10422260;28;20025;-68
2023/10/18 21:07:45;;;;;;;36.78;22.25;;;;;;;;;;10421304;28;20330;-68
2023/10/18 21:12:49;;;;;;;39.00;21.45;;;;;;;;;;10415566;28;20045;-68
2023/10/18 21:17:49;;;;;;;39.97;21.95;;;;;;;;;;10420147;28;20371;-68
2023/10/18 21:22:53;;;;;;;37.30;20.70;;;;;;;;;;10418687;28;20025;-67
2023/10/18 21:27:53;;;;;;;39.55;21.30;;;;;;;;;;10419621;28;20025;-66
2023/10/18 21:32:54;;;;;;;32.30;19.70;;;;;;;;;;10418576;28;20342;-66
2023/10/18 21:37:54;;;;;;;40.08;21.02;;;;;;;;;;10417669;28;20272;-67
2023/10/18 21:42:54;;;;;;;34.63;19.83;;;;;;;;;;10400678;28;20208;-67
2023/10/18 21:47:54;;;;;;;37.13;20.25;;;;;;;;;;10353274;22;1150524;-73
2023/10/18 21:52:55;;;;;;;33.77;19.67;;;;;;;;;;10322960;28;20030;-77
2023/10/18 21:57:56;;;;;;;44.60;21.27;;;;;;;;;;10319459;28;20025;-79
2023/10/18 22:03:01;;;;;;;36.97;19.75;;;;;;;;;;10317968;28;20018;-77
2023/10/18 22:08:02;;;;;;;36.03;18.75;;;;;;;;;;10319310;28;20022;-78
2023/10/18 22:13:02;;;;;;;28.52;17.33;;;;;;;;;;10322487;28;20375;-74
2023/10/18 22:18:03;;;;;;;30.50;17.23;;;;;;;;;;10322973;28;20018;-78
2023/10/18 22:23:04;;;;;;;23.73;12.32;;;;;;;;;;10324073;28;20477;-79
2023/10/18 22:28:06;;;;;;;25.80;14.90;;;;;;;;;;10324683;28;20022;-77
2023/10/18 22:33:07;;;;;;;20.27;11.90;;;;;;;;;;10324575;28;20022;-78
2023/10/18 22:38:12;;;;;;;21.08;11.85;;;;;;;;;;10323501;28;20030;-75
2023/10/18 22:43:12;;;;;;;25.10;12.65;;;;;;;;;;10323588;28;20104;-77
2023/10/18 22:48:22;;;;;;;21.83;12.75;;;;;;;;;;10324835;28;20104;-75
2023/10/18 22:53:31;;;;;;;23.13;12.80;;;;;;;;;;10322206;28;20030;-75
2023/10/18 22:58:31;;;;;;;23.30;13.18;;;;;;;;;;10325359;28;20504;-75
2023/10/18 23:03:31;;;;;;;15.90;11.07;;;;;;;;;;10323057;28;20018;-75
2023/10/18 23:08:38;;;;;;;20.33;12.07;;;;;;;;;;10323865;28;20033;-77
2023/10/18 23:13:47;;;;;;;24.43;14.57;;;;;;;;;;10324870;28;20018;-81
2023/10/18 23:18:53;;;;;;;23.63;13.38;;;;;;;;;;10321848;28;20030;-75
2023/10/18 23:29:06;;;;;;;26.17;14.57;;;;;;;;;;10323005;28;20050;-77
2023/10/18 23:39:37;;;;;;;24.60;13.35;;;;;;;;;;10322773;28;20018;-80
2023/10/18 23:50:42;;;;;;;26.40;14.73;;;;;;;;;;10321035;28;20141;-75
2023/10/18 23:55:22;;;;;;;24.13;13.90;;;;;;;;;;10317983;28;20046;-80
